DAJAN LIRA-LXGB
Flight info
| Callsign | DAJAN |
|---|---|
| Flight time | N/A |
| Altitude | 40000 |
| Route | ESINO Z924 GITRI Q710 GINOX M601 VERSO L129 LULAK M603 ALT Y810 AMR L112 MGA M985 PIMOS |
| Aircraft | CL60/M-SBDE1E2E3FGHIJ1J4J5J7M3RWXYZ/LB1V1D1 |
Departure
| Time | 2026-04-29 17:20 |
|---|---|
| Airport | Ciampino–G. B. Pastine International Airport (LIRA) |
Arrival
| Time | N/A |
|---|---|
| Airport | Gibraltar Airport (LXGB) |
| Time | Latitude | Longitude | Altitude | Speed | Heading |
|---|---|---|---|---|---|
| 2026-04-29 16:59 | 41.79686 | 12.59163 | 397 ft | 0 kts | 321° |
| 2026-04-29 17:16 | 41.79692 | 12.59164 | 397 ft | 0 kts | 53° |
| 2026-04-29 17:16 | 41.79685 | 12.59176 | 398 ft | 6 kts | 154° |
| 2026-04-29 17:16 | 41.79675 | 12.59253 | 400 ft | 13 kts | 52° |
| 2026-04-29 17:16 | 41.79728 | 12.59297 | 399 ft | 16 kts | 10° |
| 2026-04-29 17:17 | 41.79795 | 12.59320 | 398 ft | 19 kts | 38° |
| 2026-04-29 17:17 | 41.79888 | 12.59314 | 396 ft | 16 kts | 334° |
| 2026-04-29 17:17 | 41.80013 | 12.59229 | 389 ft | 23 kts | 333° |
| 2026-04-29 17:17 | 41.80164 | 12.59126 | 381 ft | 23 kts | 333° |
| 2026-04-29 17:18 | 41.80296 | 12.59033 | 376 ft | 21 kts | 332° |
| 2026-04-29 17:18 | 41.80390 | 12.58976 | 373 ft | 15 kts | 327° |
| 2026-04-29 17:18 | 41.80510 | 12.58885 | 368 ft | 23 kts | 332° |
| 2026-04-29 17:18 | 41.80660 | 12.58783 | 362 ft | 23 kts | 332° |
| 2026-04-29 17:19 | 41.80767 | 12.58859 | 362 ft | 12 kts | 78° |
| 2026-04-29 17:19 | 41.80730 | 12.58935 | 363 ft | 0 kts | 149° |
| 2026-04-29 17:19 | 41.80448 | 12.59130 | 374 ft | 98 kts | 154° |
| 2026-04-29 17:20 | 41.79591 | 12.59708 | 538 ft | 166 kts | 156° |
| 2026-04-29 17:20 | 41.78468 | 12.60446 | 1231 ft | 194 kts | 157° |
| 2026-04-29 17:20 | 41.77188 | 12.61167 | 2256 ft | 212 kts | 169° |
| 2026-04-29 17:20 | 41.75761 | 12.61035 | 3524 ft | 216 kts | 201° |
| 2026-04-29 17:21 | 41.74487 | 12.60036 | 4836 ft | 219 kts | 224° |
| 2026-04-29 17:21 | 41.73611 | 12.58400 | 6117 ft | 223 kts | 248° |
| 2026-04-29 17:21 | 41.73380 | 12.56382 | 7374 ft | 229 kts | 277° |
| 2026-04-29 17:21 | 41.73751 | 12.54370 | 8637 ft | 232 kts | 285° |
| 2026-04-29 17:22 | 41.74200 | 12.52336 | 9904 ft | 233 kts | 285° |
| 2026-04-29 17:22 | 41.74647 | 12.50280 | 11130 ft | 236 kts | 285° |
| 2026-04-29 17:22 | 41.75102 | 12.48180 | 12319 ft | 239 kts | 285° |
| 2026-04-29 17:22 | 41.75560 | 12.46064 | 13477 ft | 241 kts | 286° |
| 2026-04-29 17:23 | 41.76024 | 12.43914 | 14580 ft | 245 kts | 286° |
| 2026-04-29 17:23 | 41.76490 | 12.41746 | 15620 ft | 249 kts | 286° |
| 2026-04-29 17:23 | 41.76979 | 12.39490 | 16491 ft | 260 kts | 286° |
| 2026-04-29 17:23 | 41.77529 | 12.36963 | 16513 ft | 302 kts | 286° |
| 2026-04-29 17:24 | 41.78148 | 12.34122 | 16810 ft | 330 kts | 285° |
| 2026-04-29 17:24 | 41.78808 | 12.31093 | 17506 ft | 343 kts | 285° |
| 2026-04-29 17:24 | 41.79258 | 12.27986 | 18430 ft | 347 kts | 273° |
| 2026-04-29 17:24 | 41.79030 | 12.24807 | 19336 ft | 351 kts | 256° |
| 2026-04-29 17:25 | 41.78034 | 12.21803 | 20189 ft | 359 kts | 238° |
| 2026-04-29 17:25 | 41.76292 | 12.19362 | 20962 ft | 369 kts | 222° |
| 2026-04-29 17:25 | 41.74263 | 12.17213 | 21710 ft | 376 kts | 221° |
| 2026-04-29 17:25 | 41.72217 | 12.15044 | 22475 ft | 380 kts | 221° |